Statesville, NC

11:17 AM EST on December 15, 2017 (GMT -0500)
Statesville Municipal

Weather History for KSVH - February, 2014

Change the Weather History Date:

Thursday, February 27, 2014

  Actual Average (KHKY) Record (KHKY)
Temperature  
Mean Temperature 37 °F -  
Max Temperature 54 °F 54 °F 75 °F (2011)
Min Temperature 20 °F 30 °F 9 °F (1963)
Degree Days  
Heating Degree Days 28    
Moisture  
Dew Point 9 °F    
Average Humidity 40    
Maximum Humidity 83    
Minimum Humidity 13    
Precipitation  
Precipitation 0.00 in - - ()
Sea Level Pressure  
Sea Level Pressure 29.83 in    
Wind  
Wind Speed 3 mph (WNW)    
Max Wind Speed 15 mph    
Max Gust Speed 24 mph    
Visibility 10 miles    
Events      
Averages and records for this station are not official NWS values.
T = Trace of Precipitation, MM = Missing Value Source: NWS Daily Summary

Daily Weather History Graph

Daily Weather History Graph

Search for Another Location

Airport or City:

Trip Planner

Search our weather history database for the weather conditions in past years. The results will help you decide how hot, cold, wet, or windy it might be!

Date:

Astronomy

Feb. 27, 2014 Rise Set
Actual Time 6:56 AM EST 6:17 PM EST
Civil Twilight 6:30 AM EST 6:42 PM EST
Nautical Twilight 6:01 AM EST 7:12 PM EST
Astronomical Twilight 5:31 AM EST 7:42 PM EST
Moon 5:25 AM EST (2/27) 4:42 PM EST (2/27)
Length of Visible Light 12h 12m
Length of Day
11h 20m
Waning Crescent, 4% of the Moon is Illuminated
Feb 27
Waning Crescent
Mar 1
New
Mar 8
First Quarter
Mar 16
Full
Mar 23
Last Quarter

Hourly Weather History & Observations

Time (EST) Temp. Windchill Dew Point Humidity Pressure Visibility Wind Dir Wind Speed Gust Speed Precip Events Conditions
12:15 AM 28.9 °F - 14.7 °F 55% 29.84 in 10.0 mi Calm Calm - N/A   Clear
12:35 AM 27.7 °F - 14.4 °F 57% 29.84 in 10.0 mi Calm Calm - N/A   Clear
12:55 AM 27.5 °F - 15.4 °F 61% 29.84 in 10.0 mi Calm Calm - N/A   Clear
1:15 AM 27.5 °F - 14.9 °F 59% 29.84 in 10.0 mi Calm Calm - N/A   Clear
1:35 AM 27.3 °F - 15.4 °F 61% 29.83 in 10.0 mi Calm Calm - N/A   Clear
1:55 AM 28.4 °F 24.6 °F 14.9 °F 57% 29.84 in 10.0 mi NE 3.5 mph - N/A   Clear
2:15 AM 28.4 °F - 14.9 °F 57% 29.83 in 10.0 mi Calm Calm - N/A   Clear
2:35 AM 28.6 °F - 14.4 °F 55% 29.83 in 10.0 mi Calm Calm - N/A   Clear
2:55 AM 26.6 °F - 14.7 °F 61% 29.83 in 10.0 mi Calm Calm - N/A   Clear
3:15 AM 25.9 °F - 14.4 °F 62% 29.82 in 10.0 mi Calm Calm - N/A   Clear
3:35 AM 23.0 °F - 15.3 °F 72% 29.82 in 10.0 mi Calm Calm - N/A   Clear
3:55 AM 22.8 °F - 15.4 °F 73% 29.81 in 10.0 mi Calm Calm - N/A   Clear
4:15 AM 21.7 °F - 15.8 °F 78% 29.81 in 10.0 mi Calm Calm - N/A   Clear
4:35 AM 21.9 °F - 16.2 °F 78% 29.81 in 10.0 mi Calm Calm - N/A   Clear
4:55 AM 22.1 °F 17.4 °F 16.2 °F 78% 29.80 in 10.0 mi SSW 3.5 mph - N/A   Clear
5:15 AM 23.2 °F 17.2 °F 15.8 °F 73% 29.81 in 10.0 mi West 4.6 mph - N/A   Clear
5:35 AM 20.8 °F - 15.6 °F 80% 29.80 in 10.0 mi Calm Calm - N/A   Clear
5:55 AM 21.2 °F - 16.5 °F 82% 29.81 in 10.0 mi Calm Calm - N/A   Clear
6:15 AM 21.7 °F - 15.8 °F 78% 29.81 in 10.0 mi Calm Calm - N/A   Clear
6:35 AM 22.8 °F - 16.2 °F 76% 29.81 in 10.0 mi Calm Calm - N/A   Clear
6:55 AM 20.7 °F - 15.8 °F 81% 29.81 in 10.0 mi Calm Calm - N/A   Clear
7:15 AM 20.1 °F - 15.8 °F 83% 29.81 in 10.0 mi Calm Calm - N/A   Clear
7:35 AM 22.6 °F - 17.6 °F 81% 29.82 in 10.0 mi Calm Calm - N/A   Clear
7:55 AM 25.9 °F - 18.7 °F 74% 29.84 in 10.0 mi Calm Calm - N/A   Clear
8:15 AM 28.4 °F 24.6 °F 18.7 °F 67% 29.84 in 10.0 mi West 3.5 mph - N/A   Clear
8:35 AM 30.2 °F 26.7 °F 18.5 °F 62% 29.84 in 10.0 mi WSW 3.5 mph - N/A   Clear
8:50 AM 30.9 °F 27.5 °F 17.4 °F 57% 29.84 in 10.0 mi WSW 3.5 mph - N/A   Clear
9:15 AM 32.5 °F 25.5 °F 18.5 °F 56% 29.84 in 10.0 mi WSW 8.1 mph - N/A   Clear
9:35 AM 34.7 °F 29.6 °F 13.3 °F 41% 29.84 in 10.0 mi WSW 5.8 mph - N/A   Clear
9:55 AM 36.3 °F 28.9 °F 11.7 °F 36% 29.84 in 10.0 mi WSW 10.4 mph - N/A   Clear
10:15 AM 37.4 °F 32.1 °F 9.9 °F 32% 29.84 in 10.0 mi WSW 6.9 mph 16.1 mph N/A   Clear
10:35 AM 39.0 °F 33.4 °F 8.4 °F 28% 29.83 in 10.0 mi WSW 8.1 mph 16.1 mph N/A   Clear
10:55 AM 40.6 °F 34.3 °F 7.9 °F 26% 29.83 in 10.0 mi WSW 10.4 mph 16.1 mph N/A   Clear
11:15 AM 40.8 °F 38.8 °F 7.5 °F 25% 29.83 in 10.0 mi West 3.5 mph - N/A   Clear
11:35 AM 42.3 °F 36.8 °F 7.5 °F 24% 29.82 in 10.0 mi SW 9.2 mph - N/A   Clear
11:55 AM 42.8 °F 37.5 °F 6.8 °F 23% 29.81 in 10.0 mi SW 9.2 mph - N/A   Clear
12:15 PM 45.3 °F 41.1 °F 6.8 °F 21% 29.80 in 10.0 mi WSW 8.1 mph 17.3 mph N/A   Clear
12:35 PM 46.4 °F 43.5 °F 5.9 °F 19% 29.79 in 10.0 mi WSW 5.8 mph - N/A   Clear
12:55 PM 48.4 °F - 5.0 °F 17% 29.78 in 10.0 mi WSW 8.1 mph - N/A   Clear
1:15 PM 49.6 °F - 2.5 °F 15% 29.77 in 10.0 mi West 15.0 mph 21.9 mph N/A   Clear
1:30 PM 49.3 °F - 1.0 °F 14% 29.77 in 10.0 mi WSW 8.1 mph 17.3 mph N/A   Clear
1:55 PM 50.4 °F - 2.8 °F 14% 29.76 in 10.0 mi WSW 8.1 mph 24.2 mph N/A   Clear
2:15 PM 51.8 °F - 3.7 °F 14% 29.75 in 10.0 mi WNW 11.5 mph 18.4 mph N/A   Clear
2:35 PM 52.2 °F - 1.8 °F 13% 29.75 in 10.0 mi West 13.8 mph 23.0 mph N/A   Clear
2:55 PM 52.7 °F - 2.3 °F 13% 29.75 in 10.0 mi WSW 9.2 mph 21.9 mph N/A   Clear
3:15 PM 52.7 °F - 2.3 °F 13% 29.75 in 10.0 mi West 13.8 mph 21.9 mph N/A   Clear
3:35 PM 54.1 °F - 6.1 °F 14% 29.76 in 10.0 mi WNW 9.2 mph 17.3 mph N/A   Clear
3:55 PM 54.3 °F - 7.5 °F 15% 29.76 in 10.0 mi West 5.8 mph 16.1 mph N/A   Clear
4:15 PM 52.9 °F - 5.7 °F 15% 29.77 in 10.0 mi NNW 8.1 mph - N/A   Clear
4:35 PM 51.1 °F - 2.3 °F 14% 29.78 in 10.0 mi NNW 10.4 mph 16.1 mph N/A   Clear
4:55 PM 50.4 °F - 2.7 °F 14% 29.79 in 10.0 mi NW 12.7 mph - N/A   Clear
5:15 PM 49.1 °F - 3.9 °F 16% 29.80 in 10.0 mi NW 8.1 mph - N/A   Clear
5:35 PM 47.5 °F - 1.9 °F 15% 29.81 in 10.0 mi NW 8.1 mph - N/A   Clear
5:55 PM 46.4 °F 42.9 °F 0.7 °F 15% 29.83 in 10.0 mi NNW 6.9 mph - N/A   Clear
6:15 PM 44.6 °F 40.2 °F 0.9 °F 16% 29.84 in 10.0 mi NW 8.1 mph - N/A   Clear
6:35 PM 42.4 °F 39.6 °F 1.9 °F 19% 29.85 in 10.0 mi NW 4.6 mph - N/A   Clear
6:55 PM 42.1 °F 38.4 °F 1.0 °F 18% 29.86 in 10.0 mi NW 5.8 mph - N/A   Clear
7:15 PM 40.8 °F 36.2 °F 1.8 °F 20% 29.87 in 10.0 mi NNW 6.9 mph - N/A   Clear
7:35 PM 40.3 °F 36.3 °F 1.4 °F 20% 29.88 in 10.0 mi NW 5.8 mph - N/A   Clear
7:55 PM 39.4 °F 33.8 °F 2.3 °F 21% 29.88 in 10.0 mi NNW 8.1 mph - N/A   Clear
8:15 PM 38.1 °F 33.7 °F 3.7 °F 24% 29.89 in 10.0 mi NW 5.8 mph - N/A   Clear
8:35 PM 37.6 °F 32.3 °F 4.6 °F 25% 29.90 in 10.0 mi NW 6.9 mph - N/A   Clear
8:55 PM 37.4 °F 31.4 °F 5.0 °F 26% 29.90 in 10.0 mi NW 8.1 mph - N/A   Clear
9:15 PM 37.4 °F 32.8 °F 4.8 °F 26% 29.92 in 10.0 mi North 5.8 mph - N/A   Clear
9:35 PM 36.9 °F 33.1 °F 5.7 °F 27% 29.92 in 10.0 mi NNE 4.6 mph - N/A   Clear
9:55 PM 36.7 °F 34.1 °F 5.9 °F 28% 29.93 in 10.0 mi NNW 3.5 mph - N/A   Clear
10:15 PM 35.6 °F 32.8 °F 5.9 °F 29% 29.93 in 10.0 mi North 3.5 mph - N/A   Clear
10:35 PM 35.1 °F - 5.9 °F 30% 29.94 in 10.0 mi Calm Calm - N/A   Clear
10:55 PM 34.0 °F 29.8 °F 6.4 °F 32% 29.94 in 10.0 mi NE 4.6 mph - N/A   Clear
11:15 PM 32.0 °F - 7.9 °F 36% 29.95 in 10.0 mi Calm Calm - N/A   Clear
11:35 PM 31.3 °F - 7.5 °F 37% 29.95 in 10.0 mi Calm Calm - N/A   Clear
11:55 PM 30.2 °F - 7.9 °F 39% 29.96 in 10.0 mi Calm Calm - N/A   Clear